Aviation Digital Data Service (ADDS)

Output produced by METARs form (0243 UTC 24 July 2017)
found at http://www.aviationweather.gov/adds/metars/
 
VVDN 240230Z 00000KT 7000 FEW015 BKN100 27/26 Q1004 NOSIG
TAF VVDN 232300Z 2400/2424 22008KT 8000 SCT015 BKN050 
     TEMPO 2400/2406 3500 SHRA SCT015 FEW017CB BKN050 
     TEMPO 2406/2412 2000 +SHRA BKN013 SCT017CB BKN050 
     TEMPO 2412/2424 4000 RA
       
VVNB 240230Z 33005KT 300V360 CAVOK 31/28 Q1004 NOSIG
TAF VVNB 232300Z 2400/2424 31008KT 9999 FEW030
       
VVTS 240230Z 24009KT 8000 -RA SCT013 FEW015TCU BKN040 28/27 Q1007 NOSIG
TAF VVTS 232300Z 2400/2506 25010KT 9999 SCT017 
     TEMPO 2406/2412 25016G28KT 3000 SHRA BKN015 FEW017CB BKN040